createdAt,value
2023-06-09T00:00:04.495Z,8.03
2023-06-09T00:01:10.117Z,8.10
2023-06-09T00:02:13.087Z,7.67
2023-06-09T00:03:17.895Z,8.30
2023-06-09T00:04:19.605Z,9.13
2023-06-09T00:05:22.002Z,7.50
2023-06-09T00:06:24.133Z,7.73
2023-06-09T00:07:31.047Z,8.90
2023-06-09T00:08:33.573Z,8.27
2023-06-09T00:09:35.189Z,8.87
2023-06-09T00:10:36.784Z,7.97
2023-06-09T00:11:38.357Z,8.80
2023-06-09T00:12:39.987Z,8.70
2023-06-09T00:13:41.590Z,8.37
2023-06-09T00:14:43.170Z,8.80
2023-06-09T00:15:44.748Z,8.77
2023-06-09T00:16:47.721Z,9.17
2023-06-09T00:17:50.104Z,7.80
2023-06-09T00:18:54.517Z,8.43
2023-06-09T00:20:02.505Z,9.00
2023-06-09T00:21:04.427Z,9.30
2023-06-09T00:22:06.390Z,8.50
2023-06-09T00:23:09.177Z,7.90
2023-06-09T00:24:11.269Z,8.57
2023-06-09T00:25:13.826Z,9.10
2023-06-09T00:26:16.470Z,8.93
2023-06-09T00:27:18.569Z,8.80
2023-06-09T00:28:20.155Z,7.93
2023-06-09T00:29:24.492Z,7.57
2023-06-09T00:30:38.794Z,8.50
2023-06-09T00:31:43.357Z,9.03
2023-06-09T00:32:45.128Z,8.33
2023-06-09T00:33:46.791Z,8.07
2023-06-09T00:34:48.484Z,8.10
2023-06-09T00:35:50.455Z,9.17
2023-06-09T00:36:52.107Z,9.70
2023-06-09T00:37:53.730Z,8.57
2023-06-09T00:38:55.502Z,8.97
2023-06-09T00:39:57.241Z,9.90
2023-06-09T00:40:59.062Z,9.40
2023-06-09T00:42:00.874Z,9.03
2023-06-09T00:43:02.519Z,8.87
2023-06-09T00:44:04.669Z,9.10
2023-06-09T00:45:06.730Z,9.20
2023-06-09T00:46:08.557Z,8.50
2023-06-09T00:47:10.870Z,9.73
2023-06-09T00:48:12.922Z,9.50
2023-06-09T00:49:14.630Z,9.17
2023-06-09T00:50:18.381Z,9.67
2023-06-09T00:51:20.162Z,9.70
2023-06-09T00:52:21.898Z,9.33
2023-06-09T00:53:24.254Z,8.50
2023-06-09T00:54:26.008Z,8.57
2023-06-09T00:55:28.243Z,8.50
2023-06-09T00:56:31.165Z,9.00
2023-06-09T00:57:35.022Z,8.87
2023-06-09T00:58:36.750Z,9.03
2023-06-09T00:59:38.468Z,8.63
2023-06-09T01:00:41.776Z,8.70
2023-06-09T01:01:45.772Z,9.17
2023-06-09T01:02:48.254Z,8.33
2023-06-09T01:03:50.120Z,9.17
2023-06-09T01:04:53.211Z,8.83
2023-06-09T01:06:04.350Z,10.00
2023-06-09T01:07:09.886Z,8.30
2023-06-09T01:08:25.907Z,9.20
2023-06-09T01:09:39.282Z,9.20
2023-06-09T01:11:00.370Z,8.10
2023-06-09T01:12:08.026Z,9.50
2023-06-09T01:13:28.392Z,8.13
2023-06-09T01:14:35.087Z,7.73
2023-06-09T01:15:41.367Z,7.80
2023-06-09T01:16:49.063Z,8.90
2023-06-09T01:17:56.165Z,8.87
2023-06-09T01:19:00.456Z,8.00
2023-06-09T01:20:05.815Z,9.43
2023-06-09T01:21:22.747Z,8.07
2023-06-09T01:22:24.327Z,7.90
2023-06-09T01:23:46.169Z,9.10
2023-06-09T01:24:53.692Z,8.33
2023-06-09T01:25:55.891Z,8.83
2023-06-09T01:27:00.669Z,8.00
2023-06-09T01:28:16.189Z,7.57
2023-06-09T01:29:19.252Z,7.87
2023-06-09T01:30:22.116Z,8.63
2023-06-09T01:31:24.520Z,7.97
2023-06-09T01:32:27.373Z,7.97
2023-06-09T01:33:29.185Z,8.70
2023-06-09T01:34:31.442Z,8.10
2023-06-09T01:35:33.089Z,8.57
2023-06-09T01:36:35.383Z,8.57
2023-06-09T01:37:37.139Z,9.47
2023-06-09T01:38:39.270Z,8.00
2023-06-09T01:39:41.261Z,8.80
2023-06-09T01:40:44.229Z,8.07
2023-06-09T01:41:45.842Z,8.03
2023-06-09T01:42:47.644Z,8.00
2023-06-09T01:43:49.273Z,8.33
2023-06-09T01:44:50.856Z,8.13
2023-06-09T01:45:52.685Z,8.20
2023-06-09T01:46:54.464Z,8.10
2023-06-09T01:47:56.174Z,7.20
2023-06-09T01:49:06.071Z,9.37
2023-06-09T01:50:17.816Z,8.67
2023-06-09T01:51:28.232Z,7.63
2023-06-09T01:52:45.187Z,8.90
2023-06-09T01:53:52.871Z,8.50
2023-06-09T01:54:59.537Z,8.83
2023-06-09T01:56:09.371Z,7.80
2023-06-09T01:57:19.280Z,8.10
2023-06-09T01:58:23.709Z,8.20
2023-06-09T01:59:27.845Z,8.13
2023-06-09T02:00:29.931Z,7.90
2023-06-09T02:01:33.258Z,8.67
2023-06-09T02:02:35.988Z,7.97
2023-06-09T02:03:39.980Z,8.00
2023-06-09T02:04:43.761Z,8.37
2023-06-09T02:05:46.580Z,8.43
2023-06-09T02:06:49.071Z,7.73
2023-06-09T02:07:52.454Z,8.43
2023-06-09T02:08:54.294Z,8.43
2023-06-09T02:09:55.997Z,8.40
2023-06-09T02:10:57.734Z,8.10
2023-06-09T02:12:00.862Z,8.50
2023-06-09T02:13:15.579Z,7.97
2023-06-09T02:14:17.126Z,8.43
2023-06-09T02:15:20.233Z,7.87
2023-06-09T02:16:23.396Z,8.43
2023-06-09T02:17:26.246Z,8.43
2023-06-09T02:18:28.456Z,8.00
2023-06-09T02:19:31.976Z,7.13
2023-06-09T02:20:33.922Z,8.00
2023-06-09T02:21:36.595Z,8.83
2023-06-09T02:22:38.212Z,8.47
2023-06-09T02:23:40.727Z,9.27
2023-06-09T02:24:42.363Z,9.03
2023-06-09T02:25:43.994Z,8.63
2023-06-09T02:26:45.698Z,7.50
2023-06-09T02:27:47.263Z,8.60
2023-06-09T02:28:48.928Z,8.33
2023-06-09T02:29:50.559Z,8.20
2023-06-09T02:30:52.223Z,8.40
2023-06-09T02:31:59.158Z,8.23
2023-06-09T02:33:01.683Z,8.20
2023-06-09T02:34:03.599Z,8.30
2023-06-09T02:35:06.206Z,8.57
2023-06-09T02:36:08.063Z,9.30
2023-06-09T02:37:10.735Z,8.50
2023-06-09T02:38:12.955Z,8.10
2023-06-09T02:39:15.999Z,8.60
2023-06-09T02:40:17.687Z,9.20
2023-06-09T02:41:19.297Z,8.20
2023-06-09T02:42:20.957Z,8.20
2023-06-09T02:43:22.534Z,8.93
2023-06-09T02:44:24.171Z,9.07
2023-06-09T02:45:25.957Z,8.40
2023-06-09T02:46:27.899Z,8.43
2023-06-09T02:47:29.698Z,9.53
2023-06-09T02:48:31.557Z,10.67
2023-06-09T02:49:33.309Z,9.63
2023-06-09T02:50:34.809Z,8.83
2023-06-09T02:51:37.272Z,9.73
2023-06-09T02:52:41.131Z,8.90
2023-06-09T02:53:42.752Z,9.10
2023-06-09T02:54:44.716Z,9.70
2023-06-09T02:55:46.625Z,10.90
2023-06-09T02:56:48.302Z,9.60
2023-06-09T02:57:50.099Z,8.53
2023-06-09T02:58:52.651Z,9.53
2023-06-09T02:59:54.674Z,9.27
2023-06-09T03:00:56.362Z,9.87
2023-06-09T03:01:57.968Z,8.77
2023-06-09T03:02:59.653Z,9.10
2023-06-09T03:04:01.558Z,9.07
2023-06-09T03:05:03.182Z,9.43
2023-06-09T03:06:04.930Z,9.80
2023-06-09T03:07:06.674Z,10.30
2023-06-09T03:08:09.578Z,11.70
2023-06-09T03:09:12.175Z,12.10
2023-06-09T03:10:13.716Z,11.03
2023-06-09T03:11:15.481Z,12.60
2023-06-09T03:12:17.025Z,12.40
2023-06-09T03:13:18.622Z,13.47
2023-06-09T03:14:21.624Z,12.60
2023-06-09T03:15:23.127Z,12.47
2023-06-09T03:16:25.420Z,12.07
2023-06-09T03:17:28.028Z,11.33
2023-06-09T03:18:30.368Z,10.93
2023-06-09T03:19:32.507Z,11.90
2023-06-09T03:20:35.526Z,12.20
2023-06-09T03:21:38.144Z,12.40
2023-06-09T03:22:39.770Z,13.10
2023-06-09T03:23:44.153Z,13.07
2023-06-09T03:24:49.793Z,12.63
2023-06-09T03:25:52.836Z,11.77
2023-06-09T03:26:54.460Z,12.13
2023-06-09T03:27:56.327Z,11.47
2023-06-09T03:28:58.130Z,11.93
2023-06-09T03:29:59.822Z,11.50
2023-06-09T03:31:01.681Z,12.63
2023-06-09T03:32:03.436Z,12.10
2023-06-09T03:33:05.103Z,11.10
2023-06-09T03:34:06.772Z,10.70
2023-06-09T03:35:08.564Z,11.83
2023-06-09T03:36:11.064Z,12.30
2023-06-09T03:37:15.574Z,11.37
2023-06-09T03:38:17.138Z,11.47
2023-06-09T03:39:18.605Z,12.33
2023-06-09T03:40:20.190Z,11.10
2023-06-09T03:41:26.224Z,10.50
2023-06-09T03:42:27.960Z,10.90
2023-06-09T03:43:30.010Z,10.57
2023-06-09T03:44:31.920Z,9.90
2023-06-09T03:45:33.587Z,9.97
2023-06-09T03:46:35.684Z,10.60
2023-06-09T03:47:37.480Z,12.33
2023-06-09T03:48:39.243Z,10.90
2023-06-09T03:49:41.058Z,11.60
2023-06-09T03:50:42.767Z,12.47
2023-06-09T03:51:44.421Z,11.13
2023-06-09T03:52:46.054Z,13.20
2023-06-09T03:53:47.692Z,12.47
2023-06-09T03:54:49.698Z,11.47
2023-06-09T03:55:51.225Z,12.23
2023-06-09T03:56:52.858Z,11.50
2023-06-09T03:57:54.356Z,10.87
2023-06-09T03:58:56.296Z,10.23
2023-06-09T03:59:57.886Z,10.80
2023-06-09T04:00:59.446Z,9.40
2023-06-09T04:02:01.421Z,9.73
2023-06-09T04:03:03.250Z,9.90
2023-06-09T04:04:05.144Z,9.20
2023-06-09T04:05:06.884Z,9.50
2023-06-09T04:06:08.704Z,9.37
2023-06-09T04:07:11.613Z,9.10
2023-06-09T04:08:13.498Z,9.93
2023-06-09T04:09:15.131Z,9.60
2023-06-09T04:10:16.841Z,9.40
2023-06-09T04:11:18.738Z,9.23
2023-06-09T04:12:20.572Z,9.30
2023-06-09T04:13:22.345Z,9.23
2023-06-09T04:14:23.947Z,9.70
2023-06-09T04:15:25.998Z,9.10
2023-06-09T04:16:27.752Z,8.47
2023-06-09T04:17:29.908Z,9.20
2023-06-09T04:18:31.620Z,8.90
2023-06-09T04:19:33.197Z,9.53
2023-06-09T04:20:35.772Z,9.20
2023-06-09T04:21:38.463Z,9.40
2023-06-09T04:22:49.345Z,8.40
2023-06-09T04:23:50.943Z,8.67
2023-06-09T04:24:52.586Z,8.83
2023-06-09T04:25:54.692Z,8.37
2023-06-09T04:26:56.494Z,8.77
2023-06-09T04:27:58.284Z,9.60
2023-06-09T04:29:00.966Z,8.53
2023-06-09T04:30:06.353Z,8.33
2023-06-09T04:31:09.940Z,9.13
2023-06-09T04:32:12.649Z,9.33
2023-06-09T04:33:14.835Z,9.60
2023-06-09T04:34:17.203Z,9.10
2023-06-09T04:35:19.084Z,9.70
2023-06-09T04:36:21.944Z,9.73
2023-06-09T04:37:26.348Z,8.50
2023-06-09T04:38:28.460Z,8.83
2023-06-09T04:39:30.466Z,9.57
2023-06-09T04:40:32.613Z,8.47
2023-06-09T04:41:35.058Z,9.80
2023-06-09T04:42:36.691Z,8.60
2023-06-09T04:43:40.867Z,9.23
2023-06-09T04:44:44.790Z,9.50
2023-06-09T04:45:48.411Z,9.00
2023-06-09T04:46:51.009Z,8.10
2023-06-09T04:47:52.630Z,9.20
2023-06-09T04:48:55.575Z,9.60
2023-06-09T04:49:58.434Z,9.10
2023-06-09T04:51:01.486Z,8.80
2023-06-09T04:52:03.955Z,8.50
2023-06-09T04:53:08.298Z,9.97
2023-06-09T04:54:11.058Z,9.17
2023-06-09T04:55:15.502Z,9.20
2023-06-09T04:56:17.606Z,9.57
2023-06-09T04:57:19.498Z,9.27
2023-06-09T04:58:21.131Z,8.83
2023-06-09T04:59:22.858Z,9.37
2023-06-09T05:00:27.798Z,8.40
2023-06-09T05:01:30.700Z,9.03
2023-06-09T05:02:33.869Z,8.53
2023-06-09T05:03:35.940Z,8.80
2023-06-09T05:04:37.629Z,8.80
2023-06-09T05:05:39.192Z,8.07
2023-06-09T05:06:41.165Z,9.30
2023-06-09T05:07:43.233Z,8.30
2023-06-09T05:08:46.216Z,9.30
2023-06-09T05:09:47.872Z,8.23
2023-06-09T05:10:50.043Z,7.60
2023-06-09T05:11:51.648Z,8.33
2023-06-09T05:12:53.179Z,8.13
2023-06-09T05:13:54.799Z,8.40
2023-06-09T05:14:56.357Z,7.67
2023-06-09T05:15:58.510Z,8.10
2023-06-09T05:17:01.290Z,8.40
2023-06-09T05:18:02.954Z,8.57
2023-06-09T05:19:04.972Z,7.93
2023-06-09T05:20:07.770Z,8.20
2023-06-09T05:21:09.597Z,7.90
2023-06-09T05:22:11.184Z,7.17
2023-06-09T05:23:13.400Z,7.53
2023-06-09T05:24:15.292Z,7.80
2023-06-09T05:25:18.230Z,7.67
2023-06-09T05:26:20.411Z,7.93
2023-06-09T05:27:22.168Z,7.87
2023-06-09T05:28:23.750Z,7.77
2023-06-09T05:29:25.459Z,8.30
2023-06-09T05:30:26.952Z,7.63
2023-06-09T05:31:28.687Z,8.23
2023-06-09T05:32:33.694Z,8.47
2023-06-09T05:33:35.537Z,8.50
2023-06-09T05:34:37.105Z,8.20
2023-06-09T05:35:38.757Z,8.63
2023-06-09T05:36:40.430Z,7.43
2023-06-09T05:37:51.667Z,7.20
2023-06-09T05:38:53.330Z,7.67
2023-06-09T05:39:54.890Z,7.83
2023-06-09T05:40:56.908Z,7.70
2023-06-09T05:41:58.491Z,8.00
2023-06-09T05:43:00.291Z,7.43
2023-06-09T05:44:01.910Z,8.00
2023-06-09T05:45:03.537Z,8.17
2023-06-09T05:46:05.248Z,7.23
2023-06-09T05:47:06.978Z,7.63
2023-06-09T05:48:08.557Z,7.93
2023-06-09T05:49:10.179Z,8.10
2023-06-09T05:50:11.805Z,8.87
2023-06-09T05:51:13.797Z,9.20
2023-06-09T05:52:15.658Z,8.50
2023-06-09T05:53:18.092Z,8.20
2023-06-09T05:54:19.859Z,8.10
2023-06-09T05:55:21.487Z,7.67
2023-06-09T05:56:23.368Z,8.43
2023-06-09T05:57:27.281Z,7.90
2023-06-09T05:58:32.369Z,9.50
2023-06-09T05:59:36.000Z,8.90
2023-06-09T06:00:37.544Z,8.47
2023-06-09T06:01:39.070Z,8.07
2023-06-09T06:02:40.828Z,7.73
2023-06-09T06:03:43.171Z,7.80
2023-06-09T06:04:44.933Z,7.60
2023-06-09T06:05:46.930Z,8.93
2023-06-09T06:06:48.768Z,8.50
2023-06-09T06:07:50.410Z,8.40
2023-06-09T06:08:52.024Z,7.57
2023-06-09T06:09:53.587Z,8.80
2023-06-09T06:10:55.263Z,7.50
2023-06-09T06:11:56.815Z,8.37
2023-06-09T06:13:02.184Z,8.10
2023-06-09T06:14:03.833Z,7.67
2023-06-09T06:15:05.658Z,7.70
2023-06-09T06:16:07.261Z,8.00
2023-06-09T06:17:08.827Z,7.80
2023-06-09T06:18:10.471Z,7.90
2023-06-09T06:19:14.668Z,7.30
2023-06-09T06:20:16.909Z,8.07
2023-06-09T06:21:19.356Z,7.83
2023-06-09T06:22:20.898Z,8.40
2023-06-09T06:23:22.519Z,7.40
2023-06-09T06:24:24.175Z,7.93
2023-06-09T06:25:26.725Z,7.53
2023-06-09T06:26:28.316Z,7.60
2023-06-09T06:27:30.535Z,7.40
2023-06-09T06:28:32.250Z,7.20
2023-06-09T06:29:34.811Z,7.30
2023-06-09T06:30:38.513Z,8.20
2023-06-09T06:31:40.286Z,7.63
2023-06-09T06:32:52.813Z,6.80
2023-06-09T06:33:55.080Z,7.40
2023-06-09T06:34:56.776Z,6.83
2023-06-09T06:35:59.081Z,7.50
2023-06-09T06:37:00.901Z,7.70
2023-06-09T06:38:02.634Z,8.13
2023-06-09T06:39:04.294Z,6.57
2023-06-09T06:40:06.393Z,7.70
2023-06-09T06:41:08.470Z,7.27
2023-06-09T06:42:10.334Z,7.23
2023-06-09T06:43:12.122Z,6.73
2023-06-09T06:44:13.764Z,6.80
2023-06-09T06:45:15.634Z,6.80
2023-06-09T06:46:18.529Z,7.00
2023-06-09T06:47:20.282Z,6.60
2023-06-09T06:48:22.577Z,6.73
2023-06-09T06:49:24.304Z,6.83
2023-06-09T06:50:26.938Z,6.70
2023-06-09T06:51:28.727Z,7.07
2023-06-09T06:52:30.996Z,7.20
2023-06-09T06:53:33.217Z,7.20
2023-06-09T06:54:34.766Z,6.73
2023-06-09T06:55:38.270Z,6.60
2023-06-09T06:56:39.992Z,6.90
2023-06-09T06:57:41.952Z,6.53
2023-06-09T06:58:43.661Z,7.13
2023-06-09T06:59:45.563Z,7.30
2023-06-09T07:00:47.606Z,6.30
2023-06-09T07:01:49.595Z,5.87
2023-06-09T07:02:51.171Z,6.13
2023-06-09T07:03:53.296Z,6.50
2023-06-09T07:04:54.809Z,6.60
2023-06-09T07:05:56.641Z,6.90
2023-06-09T07:06:58.182Z,6.53
2023-06-09T07:07:59.689Z,6.80
2023-06-09T07:09:03.867Z,7.30
2023-06-09T07:10:10.024Z,6.27
2023-06-09T07:11:11.747Z,7.33
2023-06-09T07:12:13.328Z,5.90
2023-06-09T07:13:15.815Z,6.70
2023-06-09T07:14:17.362Z,6.30
2023-06-09T07:15:18.969Z,6.30
2023-06-09T07:16:20.827Z,6.03
2023-06-09T07:17:22.322Z,6.20
2023-06-09T07:18:24.149Z,5.40
2023-06-09T07:19:26.206Z,6.03
2023-06-09T07:20:27.820Z,5.67
2023-06-09T07:21:33.188Z,6.50
2023-06-09T07:22:35.437Z,5.57
2023-06-09T07:23:37.223Z,6.07
2023-06-09T07:24:38.794Z,5.53
2023-06-09T07:25:40.550Z,6.20
2023-06-09T07:26:42.107Z,5.63
2023-06-09T07:27:43.663Z,5.53
2023-06-09T07:28:45.202Z,6.37
2023-06-09T07:29:47.879Z,5.90
2023-06-09T07:30:49.490Z,5.70
2023-06-09T07:31:51.238Z,5.30
2023-06-09T07:32:54.091Z,5.77
2023-06-09T07:33:55.669Z,6.60
2023-06-09T07:34:59.090Z,6.23
2023-06-09T07:36:01.102Z,5.47
2023-06-09T07:37:05.500Z,5.53
2023-06-09T07:38:09.250Z,5.40
2023-06-09T07:39:11.486Z,6.00
2023-06-09T07:40:19.911Z,5.33
2023-06-09T07:41:23.213Z,5.27
2023-06-09T07:42:25.062Z,5.80
2023-06-09T07:43:26.827Z,5.80
2023-06-09T07:44:28.449Z,5.90
2023-06-09T07:45:31.387Z,6.20
2023-06-09T07:46:33.354Z,5.60
2023-06-09T07:47:35.242Z,5.60
2023-06-09T07:48:38.604Z,5.30
2023-06-09T07:49:40.265Z,5.80
2023-06-09T07:50:59.289Z,5.30
2023-06-09T07:52:09.997Z,5.40
2023-06-09T07:53:22.757Z,4.80
2023-06-09T07:54:24.364Z,5.77
2023-06-09T07:55:26.787Z,4.90
2023-06-09T07:56:28.304Z,5.33
2023-06-09T07:57:29.968Z,4.70
2023-06-09T07:58:31.643Z,4.80
2023-06-09T07:59:33.182Z,5.17
2023-06-09T08:00:34.747Z,5.30
2023-06-09T08:01:38.312Z,5.90
2023-06-09T08:02:43.000Z,4.30
2023-06-09T08:03:45.076Z,5.10
2023-06-09T08:04:47.098Z,5.43
2023-06-09T08:05:48.918Z,5.00
2023-06-09T08:06:51.015Z,5.10
2023-06-09T08:07:52.632Z,4.63
2023-06-09T08:08:55.042Z,4.97
2023-06-09T08:09:56.707Z,4.90
2023-06-09T08:11:01.458Z,4.90
2023-06-09T08:12:03.171Z,5.20
2023-06-09T08:13:04.876Z,4.97
2023-06-09T08:14:07.766Z,5.07
2023-06-09T08:15:09.513Z,5.70
2023-06-09T08:16:11.451Z,5.18
2023-06-09T08:17:13.640Z,4.80
2023-06-09T08:18:15.236Z,4.67
2023-06-09T08:19:16.911Z,4.65
2023-06-09T08:20:18.599Z,5.00
2023-06-09T08:21:20.442Z,4.95
2023-06-09T08:22:21.970Z,4.85
2023-06-09T08:23:24.162Z,4.18
2023-06-09T08:24:26.819Z,5.10
2023-06-09T08:25:28.495Z,4.50
2023-06-09T08:26:30.037Z,5.07
2023-06-09T08:27:31.882Z,5.50
2023-06-09T08:28:33.578Z,4.28
2023-06-09T08:29:37.300Z,4.13
2023-06-09T08:30:39.033Z,4.50
2023-06-09T08:31:40.784Z,4.63
2023-06-09T08:32:42.545Z,4.55
2023-06-09T08:33:44.190Z,4.63
2023-06-09T08:34:45.774Z,3.92
2023-06-09T08:35:47.489Z,4.57
2023-06-09T08:36:49.223Z,4.45
2023-06-09T08:37:51.942Z,4.13
2023-06-09T08:38:53.595Z,4.68
2023-06-09T08:39:58.781Z,4.25
2023-06-09T08:41:10.676Z,5.07
2023-06-09T08:42:16.267Z,3.92
2023-06-09T08:43:17.933Z,3.72
2023-06-09T08:44:20.879Z,4.00
2023-06-09T08:45:23.773Z,4.00
2023-06-09T08:46:26.337Z,3.80
2023-06-09T08:47:28.138Z,3.70
2023-06-09T08:48:33.927Z,5.05
2023-06-09T08:49:35.880Z,4.00
2023-06-09T08:50:42.564Z,4.10
2023-06-09T08:51:47.156Z,3.55
2023-06-09T08:52:51.211Z,3.70
2023-06-09T08:53:53.634Z,3.50
2023-06-09T08:54:57.036Z,4.38
2023-06-09T08:56:00.005Z,4.93
2023-06-09T08:57:02.178Z,3.78
2023-06-09T08:58:04.008Z,3.05
2023-06-09T08:59:06.295Z,2.58
2023-06-09T09:00:12.435Z,3.10
2023-06-09T09:01:14.363Z,3.17
2023-06-09T09:02:16.341Z,2.95
2023-06-09T09:03:18.639Z,3.47
2023-06-09T09:04:21.094Z,2.70
2023-06-09T09:05:23.133Z,2.60
2023-06-09T09:06:24.931Z,2.70
2023-06-09T09:07:26.549Z,2.55
2023-06-09T09:08:28.307Z,3.10
2023-06-09T09:09:30.578Z,2.70
2023-06-09T09:10:32.795Z,2.90
2023-06-09T09:11:34.744Z,2.70
2023-06-09T09:12:46.613Z,2.28
2023-06-09T09:13:49.559Z,2.90
2023-06-09T09:14:51.313Z,3.10
2023-06-09T09:15:53.990Z,2.97
2023-06-09T09:16:55.673Z,2.50
2023-06-09T09:17:57.396Z,2.57
2023-06-09T09:18:59.085Z,3.13
2023-06-09T09:20:09.729Z,2.87
2023-06-09T09:21:20.327Z,3.30
2023-06-09T09:22:21.852Z,2.90
2023-06-09T09:23:32.987Z,2.90
2023-06-09T09:24:35.030Z,2.87
2023-06-09T09:25:36.697Z,3.27
2023-06-09T09:26:42.046Z,3.27
2023-06-09T09:27:58.072Z,3.27
2023-06-09T09:29:05.297Z,3.40
2023-06-09T09:30:07.452Z,2.83
2023-06-09T09:31:09.683Z,2.55
2023-06-09T09:32:11.297Z,3.00
2023-06-09T09:33:19.638Z,3.30
2023-06-09T09:34:21.252Z,3.40
2023-06-09T09:35:25.571Z,3.10
2023-06-09T09:36:27.904Z,2.67
2023-06-09T09:37:31.572Z,2.90
2023-06-09T09:38:33.251Z,3.15
2023-06-09T09:39:34.896Z,3.00
2023-06-09T09:40:41.449Z,3.70
2023-06-09T09:42:01.850Z,3.28
2023-06-09T09:43:09.479Z,3.50
2023-06-09T09:44:17.491Z,3.35
2023-06-09T09:45:28.296Z,3.63
2023-06-09T09:46:37.019Z,3.67
2023-06-09T09:47:40.024Z,3.13
2023-06-09T09:48:41.760Z,3.53
2023-06-09T09:49:51.280Z,3.40
2023-06-09T09:50:56.132Z,3.30
2023-06-09T09:51:58.496Z,3.47
2023-06-09T09:53:00.111Z,3.10
2023-06-09T09:54:02.814Z,3.20
2023-06-09T09:55:09.895Z,3.07
2023-06-09T09:56:11.983Z,3.73
2023-06-09T09:57:13.682Z,2.80
2023-06-09T09:58:18.656Z,3.78
2023-06-09T09:59:20.382Z,3.13
2023-06-09T10:00:22.598Z,3.50
2023-06-09T10:01:28.501Z,3.67
2023-06-09T10:02:32.085Z,3.22
2023-06-09T10:03:35.635Z,3.13
2023-06-09T10:04:38.167Z,2.85
2023-06-09T10:05:40.602Z,3.10
2023-06-09T10:06:44.496Z,2.83
2023-06-09T10:07:47.759Z,2.33
2023-06-09T10:08:49.734Z,2.70
2023-06-09T10:09:54.312Z,2.70
2023-06-09T10:11:01.183Z,3.25
2023-06-09T10:12:04.237Z,2.85
2023-06-09T10:13:07.687Z,2.92
2023-06-09T10:14:09.697Z,3.10
2023-06-09T10:15:12.369Z,3.72
2023-06-09T10:16:14.824Z,3.67
2023-06-09T10:17:19.073Z,3.20
2023-06-09T10:18:21.451Z,3.38
2023-06-09T10:19:24.574Z,3.20
2023-06-09T10:20:26.676Z,3.15
2023-06-09T10:21:28.540Z,3.08
2023-06-09T10:22:30.334Z,2.90
2023-06-09T10:23:32.532Z,3.10
2023-06-09T10:24:34.770Z,2.75
2023-06-09T10:25:36.888Z,2.83
2023-06-09T10:26:38.826Z,3.10
2023-06-09T10:27:40.991Z,3.20
2023-06-09T10:28:43.013Z,3.15
2023-06-09T10:29:46.946Z,3.10
2023-06-09T10:30:49.132Z,2.83
2023-06-09T10:31:51.979Z,3.22
2023-06-09T10:33:12.596Z,3.10
2023-06-09T10:34:15.982Z,2.67
2023-06-09T10:35:20.505Z,3.33
2023-06-09T10:36:22.789Z,2.83
2023-06-09T10:37:28.568Z,3.38
2023-06-09T10:38:31.785Z,2.97
2023-06-09T10:39:53.366Z,3.28
2023-06-09T10:41:13.691Z,2.83
2023-06-09T10:42:19.402Z,3.28
2023-06-09T10:43:35.165Z,3.43
2023-06-09T10:44:55.185Z,3.13
2023-06-09T10:45:57.910Z,5.23
2023-06-09T10:47:00.084Z,4.33
2023-06-09T10:48:01.940Z,4.03
2023-06-09T10:49:03.518Z,3.50
2023-06-09T10:50:06.659Z,4.23
2023-06-09T10:51:27.394Z,3.37
2023-06-09T10:52:41.973Z,3.63
2023-06-09T10:54:03.467Z,3.47
2023-06-09T10:55:14.858Z,3.53
2023-06-09T10:56:47.997Z,3.70
2023-06-09T10:57:50.865Z,4.10
2023-06-09T10:58:52.460Z,3.90
2023-06-09T10:59:54.217Z,3.70
2023-06-09T11:01:08.710Z,3.67
2023-06-09T11:02:11.435Z,3.53
2023-06-09T11:03:16.186Z,3.73
2023-06-09T11:04:38.118Z,3.57
2023-06-09T11:05:44.037Z,4.00
2023-06-09T11:07:04.348Z,3.57
2023-06-09T11:08:05.956Z,3.40
2023-06-09T11:09:13.004Z,3.43
2023-06-09T11:10:14.545Z,4.10
2023-06-09T11:11:16.512Z,3.40
2023-06-09T11:12:36.655Z,3.57
2023-06-09T11:13:40.044Z,3.50
2023-06-09T11:14:48.082Z,3.47
2023-06-09T11:16:02.192Z,3.33
2023-06-09T11:17:35.372Z,3.00
2023-06-09T11:18:37.224Z,3.80
2023-06-09T11:19:38.945Z,3.80
2023-06-09T11:20:40.791Z,4.43
2023-06-09T11:22:02.626Z,4.37
2023-06-09T11:23:04.781Z,3.90
2023-06-09T11:24:07.211Z,4.13
2023-06-09T11:25:09.532Z,4.30
2023-06-09T11:26:29.374Z,5.27
2023-06-09T11:27:30.991Z,4.40
2023-06-09T11:28:40.949Z,3.90
2023-06-09T11:29:42.646Z,3.43
2023-06-09T11:31:06.741Z,3.47
2023-06-09T11:32:08.831Z,3.00
2023-06-09T11:33:10.884Z,2.90
2023-06-09T11:34:32.437Z,3.70
2023-06-09T11:35:41.047Z,3.67
2023-06-09T11:36:48.725Z,4.13
2023-06-09T11:37:53.820Z,3.60
2023-06-09T11:38:59.946Z,3.40
2023-06-09T11:40:01.660Z,3.97
2023-06-09T11:41:05.207Z,4.03
2023-06-09T11:42:06.991Z,4.83
2023-06-09T11:43:09.498Z,4.03
2023-06-09T11:44:11.339Z,4.37
2023-06-09T11:45:13.509Z,3.43
2023-06-09T11:46:15.667Z,3.70
2023-06-09T11:47:29.752Z,3.00
2023-06-09T11:48:33.474Z,3.23
2023-06-09T11:49:35.233Z,3.47
2023-06-09T11:50:36.935Z,3.83
2023-06-09T11:51:58.037Z,3.70
2023-06-09T11:53:03.413Z,4.23
2023-06-09T11:54:05.191Z,4.50
2023-06-09T11:55:07.318Z,4.40
2023-06-09T11:56:09.020Z,3.65
2023-06-09T11:57:11.427Z,3.70
2023-06-09T11:58:14.192Z,3.90
2023-06-09T11:59:27.349Z,4.50
2023-06-09T12:00:30.204Z,3.15
2023-06-09T12:01:32.746Z,3.88
2023-06-09T12:02:36.354Z,3.03
2023-06-09T12:03:39.287Z,3.95
2023-06-09T12:04:44.149Z,3.10
2023-06-09T12:05:49.500Z,3.35
2023-06-09T12:06:51.243Z,3.42
2023-06-09T12:07:54.585Z,3.55
2023-06-09T12:09:16.128Z,3.40
2023-06-09T12:10:20.595Z,3.22
2023-06-09T12:11:22.145Z,2.90
2023-06-09T12:12:23.838Z,3.10
2023-06-09T12:13:25.458Z,2.92
2023-06-09T12:14:27.012Z,3.28
2023-06-09T12:15:29.152Z,3.00
2023-06-09T12:16:31.411Z,3.00
2023-06-09T12:17:33.522Z,3.13
2023-06-09T12:18:35.382Z,2.70
2023-06-09T12:19:37.669Z,3.13
2023-06-09T12:20:39.645Z,3.22
2023-06-09T12:21:41.496Z,2.53
2023-06-09T12:22:43.276Z,3.17
2023-06-09T12:23:45.334Z,3.28
2023-06-09T12:24:47.212Z,2.90
2023-06-09T12:25:53.232Z,3.33
2023-06-09T12:26:56.640Z,3.40
2023-06-09T12:28:16.813Z,3.28
2023-06-09T12:29:27.108Z,3.15
2023-06-09T12:30:36.061Z,3.20
2023-06-09T12:31:47.682Z,3.20
2023-06-09T12:32:49.375Z,2.80
2023-06-09T12:33:53.545Z,3.38
2023-06-09T12:35:02.180Z,3.80
2023-06-09T12:36:12.970Z,3.15
2023-06-09T12:37:15.161Z,3.28
2023-06-09T12:38:16.908Z,3.10
2023-06-09T12:39:19.232Z,3.38
2023-06-09T12:40:21.652Z,3.25
2023-06-09T12:41:23.195Z,2.75
2023-06-09T12:42:25.569Z,3.00
2023-06-09T12:43:27.425Z,2.92
2023-06-09T12:44:28.977Z,3.20
2023-06-09T12:45:33.679Z,3.60
2023-06-09T12:46:36.856Z,3.70
2023-06-09T12:47:47.159Z,3.40
2023-06-09T12:48:58.316Z,3.50
2023-06-09T12:50:01.348Z,3.60
2023-06-09T12:51:02.944Z,3.60
2023-06-09T12:52:04.728Z,3.60
2023-06-09T12:53:10.028Z,3.33
2023-06-09T12:54:12.447Z,3.50
2023-06-09T12:55:16.607Z,3.20
2023-06-09T12:56:18.904Z,3.60
2023-06-09T12:57:21.603Z,3.20
2023-06-09T12:58:23.291Z,3.60
2023-06-09T12:59:25.187Z,3.70
2023-06-09T13:00:27.330Z,3.97
2023-06-09T13:01:31.515Z,3.63
2023-06-09T13:02:35.833Z,3.40
2023-06-09T13:03:37.897Z,3.97
2023-06-09T13:04:39.652Z,4.13
2023-06-09T13:05:41.696Z,3.30
2023-06-09T13:06:43.827Z,3.13
2023-06-09T13:07:45.540Z,3.43
2023-06-09T13:08:47.312Z,4.03
2023-06-09T13:09:49.049Z,3.70
2023-06-09T13:10:51.128Z,3.80
2023-06-09T13:11:52.689Z,3.47
2023-06-09T13:12:54.725Z,4.03
2023-06-09T13:13:56.970Z,3.67
2023-06-09T13:14:58.673Z,3.77
2023-06-09T13:16:00.309Z,4.13
2023-06-09T13:17:01.865Z,3.33
2023-06-09T13:18:03.803Z,3.80
2023-06-09T13:19:05.696Z,5.10
2023-06-09T13:20:07.923Z,3.73
2023-06-09T13:21:10.085Z,3.60
2023-06-09T13:22:11.672Z,3.50
2023-06-09T13:23:13.265Z,4.40
2023-06-09T13:24:15.070Z,3.70
2023-06-09T13:25:18.070Z,3.70
2023-06-09T13:26:20.016Z,3.40
2023-06-09T13:27:21.747Z,3.70
2023-06-09T13:28:23.602Z,3.17
2023-06-09T13:29:25.165Z,3.33
2023-06-09T13:30:27.106Z,4.00
2023-06-09T13:31:28.852Z,3.23
2023-06-09T13:32:30.656Z,3.13
2023-06-09T13:33:32.233Z,3.67
2023-06-09T13:34:33.892Z,2.97
2023-06-09T13:35:36.507Z,3.50
2023-06-09T13:36:38.356Z,3.00
2023-06-09T13:37:40.085Z,3.30
2023-06-09T13:38:41.756Z,3.30
2023-06-09T13:39:43.191Z,3.40
2023-06-09T13:40:46.175Z,4.07
2023-06-09T13:41:50.856Z,3.60
2023-06-09T13:42:55.097Z,3.05
2023-06-09T13:43:56.677Z,3.15
2023-06-09T13:44:58.324Z,3.60
2023-06-09T13:45:59.856Z,3.83
2023-06-09T13:47:01.514Z,4.65
2023-06-09T13:48:03.182Z,3.08
2023-06-09T13:49:05.550Z,3.67
2023-06-09T13:50:07.614Z,3.20
2023-06-09T13:51:09.314Z,9.05
2023-06-09T13:52:10.839Z,3.28
2023-06-09T13:53:12.627Z,3.70
2023-06-09T13:54:14.172Z,3.22
2023-06-09T13:55:16.302Z,3.72
2023-06-09T13:56:21.391Z,3.10
2023-06-09T13:57:22.944Z,2.80
2023-06-09T13:58:24.712Z,3.28
2023-06-09T13:59:26.301Z,3.00
2023-06-09T14:00:27.942Z,3.45
2023-06-09T14:01:30.271Z,3.10
2023-06-09T14:02:32.914Z,3.00
2023-06-09T14:03:34.852Z,3.40